METAR AND TAF INFORMATION
METAR FOR EDDC
ADDS - METARS form results

(1635 UTC 16 June 2019)
Data provider http://aviationweather.gov/metar/data/
 
METAR text: EDDC 161620Z 31006KT 260V340 CAVOK 20/11 Q1021 NOSIG
Conditions at: EDDC (DRESDEN/KLOTZSCH, DE) observed 1620 UTC 16 June 2019
Temperature: 20.0°C (68°F)
Dewpoint: 11.0°C (52°F) [RH = 56%]
Pressure (altimeter): 30.15 inches Hg (1021.0 mb)
Winds: from the NW (310 degrees) at 7 MPH (6 knots; 3.1 m/s)
Visibility: 6 or more miles (10+ km)
Ceiling: ceiling and visibility are OK
Clouds: unknown
Weather: no significant weather observed at this time

METAR text: EDDC 161550Z 30006KT 260V350 9999 FEW040 20/11 Q1021 NOSIG
Conditions at: EDDC (DRESDEN/KLOTZSCH, DE) observed 1550 UTC 16 June 2019
Temperature: 20.0°C (68°F)
Dewpoint: 11.0°C (52°F) [RH = 56%]
Pressure (altimeter): 30.15 inches Hg (1021.0 mb)
Winds: from the WNW (300 degrees) at 7 MPH (6 knots; 3.1 m/s)
Visibility: 6 or more miles (10+ km)
Ceiling: at least 12,000 feet AGL
Clouds: few clouds at 4000 feet AGL
Weather: no significant weather observed at this time

Forecast for: EDDC (DRESDEN/KLOTZSCH, DE)
Text: TAF EDDC 161100Z 1612/1712 31006KT CAVOK
Forecast period: 1200 to 1700 UTC 16 June 2019
Forecast type: FROM: standard forecast or significant change
Winds: from the NW (310 degrees) at 7 MPH (6 knots; 3.1 m/s)
Visibility: 6 or more miles 10+ km)
Ceiling: unknown
Clouds: missing
Weather: NSW  (no significant weather)
Text: BECMG 1617/1619 19004KT
Forecast period: 1700 UTC 16 June 2019 to 0700 UTC 17 June 2019
Forecast type: BECOMING: Conditions expected to become as follows by 1900 UTC 16 June 2019
Winds: from the S (190 degrees) at 5 MPH (4 knots; 2.1 m/s)
Visibility: 6 or more miles 10+ km)
Ceiling: unknown
Clouds: missing
Weather: NSW  (no significant weather)
Text: BECMG 1707/1709 08006KT
Forecast period: 0700 to 1200 UTC 17 June 2019
Forecast type: BECOMING: Conditions expected to become as follows by 0900 UTC 17 June 2019
Winds: from the E (80 degrees) at 7 MPH (6 knots; 3.1 m/s)
Visibility: 6 or more miles 10+ km)
Ceiling: unknown
Clouds: missing
Weather: NSW  (no significant weather)

 AIRPORT MAP

 RUNWAY INFORMATION
Runway 04 Runway length 8228 ft Runway width 167 ft
Runway elevation 755 ft Runway displaced threshold 0 ft Runway heading 41
Runway 22 Runway length 8228 ft Runway width 167 ft
Runway elevation 703 ft Runway displaced threshold 0 ft Runway heading 221

 AIRPORT FREQUENCIES
Type AFIS Name MUNCHEN IN Frequency 125.8 MHZ
Type APP Name MUNCHEN RA Frequency 125.625 MHZ
Type ATIS Name ATIS Frequency 118.875 MHZ
Type GND Name GND Frequency 121.9 MHZ
Type RMP Name APRON Frequency 121.75 MHZ
Type TWR Name TWR Frequency 119.7 MHZ

 AIRPORT NEAR NAVIGATION AIDS
Type DME Name Dresden Frequency 115400 KHZ
Type VOR-DME Name Dresden Frequency 114350 KHZ



Powered by Virtual Airlines Manager [v2.6.2]